トロント/ピアソン の空港の天気 - METARとTAF

トロント・ピアソン国際空港 ( CYYZ / YYZ ) - カナダ オンタリオ州トロント
飛行場実況気象(Metar)
観測時間12/15 07:00 EST (12/15 12:00 UTC)
風向・風速北北東 3m/s
視程10km以上
天気現象
全天を覆う雲 雲底高度 7620m
気温0℃
湿度93%
気圧1024.5hPa
METARCYYZ 151200Z 03006KT 15SM OVC250 00/M01 A3023 RMK CI8 SLP245
過去の天気等 Google飛行場航空写真 Wunderground天気予報

過去48時間のMETAR

飛行場予報(TAF)
発表時間: 12/15 06:38 EST (12/15 11:38 UTC)
予報対象時間: 15日7時 EST ~ 16日13時 EST
風向・風速北北西 3m/s
視程10km以上
全天の8割程度の雲 雲底高度 7320m
15日11時 EST ~ 15日13時 EST に徐々に
風向・風速北東 5m/s 瞬間風速 10m/s
15日14時 EST ~ 15日16時 EST に徐々に
風向・風速東 5m/s 瞬間風速 10m/s
15日19時 EST から
風向・風速東北東 8m/s
視程10km以上
全天の4割程度の雲 雲底高度 7320m
16日0時 EST から
風向・風速東北東 5m/s
視程10km以上
少しの雲 雲底高度 7320m
16日5時 EST から
風向・風速北北東 4m/s
視程10km以上
全天の8割程度の雲 雲底高度 4570m
16日9時 EST から
風向・風速北 5m/s
視程10km以上
少しの雲 雲底高度 610m
全天の8割程度の雲 雲底高度 3050m
TAF CYYZ 151138Z 1512/1618 33005KT P6SM BKN240
BECMG 1516/1518 05010G20KT
BECMG 1519/1521 09010G20KT
FM160000 07015KT P6SM SCT240
FM160500 06010KT P6SM FEW240
FM161000 03007KT P6SM BKN150
FM161400 01010KT P6SM FEW020 BKN100 RMK NXT FCST BY 151500Z